createdAt,value
2019-05-23T00:02:01.362Z,90.70
2019-05-23T00:05:01.584Z,90.70
2019-05-23T00:07:51.190Z,90.70
2019-05-23T00:10:42.595Z,90.60
2019-05-23T00:13:42.905Z,90.60
2019-05-23T00:16:18.238Z,90.70
2019-05-23T00:18:50.636Z,90.90
2019-05-23T00:21:22.105Z,91.00
2019-05-23T00:23:54.181Z,91.10
2019-05-23T00:26:26.944Z,91.10
2019-05-23T00:29:09.547Z,91.20
2019-05-23T00:31:48.842Z,91.20
2019-05-23T00:34:21.102Z,91.20
2019-05-23T00:36:53.746Z,91.20
2019-05-23T00:39:26.634Z,91.20
2019-05-23T00:41:57.927Z,91.20
2019-05-23T00:44:29.925Z,91.20
2019-05-23T00:47:01.852Z,91.20
2019-05-23T00:49:33.079Z,91.20
2019-05-23T00:52:05.461Z,91.20
2019-05-23T00:54:36.644Z,91.20
2019-05-23T00:57:08.958Z,91.40
2019-05-23T00:59:41.223Z,91.20
2019-05-23T01:02:12.908Z,91.10
2019-05-23T01:04:44.177Z,91.10
2019-05-23T01:07:15.381Z,91.10
2019-05-23T01:09:46.684Z,91.40
2019-05-23T01:12:18.940Z,91.10
2019-05-23T01:14:50.220Z,91.30
2019-05-23T01:17:23.219Z,91.20
2019-05-23T01:19:56.330Z,91.20
2019-05-23T01:22:27.881Z,91.10
2019-05-23T01:24:59.142Z,91.10
2019-05-23T01:27:30.489Z,91.10
2019-05-23T01:30:06.869Z,91.10
2019-05-23T01:32:48.689Z,91.10
2019-05-23T01:35:21.653Z,90.90
2019-05-23T01:37:52.849Z,91.00
2019-05-23T01:40:24.740Z,91.00
2019-05-23T01:42:56.412Z,91.00
2019-05-23T01:45:27.604Z,90.90
2019-05-23T01:47:59.043Z,90.90
2019-05-23T01:50:30.526Z,90.90
2019-05-23T01:53:02.102Z,90.90
2019-05-23T01:55:33.755Z,90.90
2019-05-23T01:58:06.013Z,90.90
2019-05-23T02:00:37.437Z,90.90
2019-05-23T02:03:08.681Z,90.90
2019-05-23T02:05:40.864Z,90.90
2019-05-23T02:08:14.049Z,90.90
2019-05-23T02:10:45.730Z,90.90
2019-05-23T02:13:17.996Z,90.90
2019-05-23T02:15:49.513Z,90.90
2019-05-23T02:18:22.433Z,90.90
2019-05-23T02:20:54.783Z,90.90
2019-05-23T02:23:26.743Z,90.90
2019-05-23T02:25:58.748Z,90.90
2019-05-23T02:28:30.827Z,90.90
2019-05-23T02:31:02.113Z,90.90
2019-05-23T02:33:33.386Z,90.90
2019-05-23T02:36:04.570Z,90.90
2019-05-23T02:38:40.542Z,90.90
2019-05-23T02:41:25.775Z,90.90
2019-05-23T02:44:01.483Z,90.80
2019-05-23T02:46:37.861Z,90.80
2019-05-23T02:49:10.866Z,91.00
2019-05-23T02:51:42.857Z,90.70
2019-05-23T02:54:15.462Z,90.50
2019-05-23T02:56:47.228Z,90.80
2019-05-23T02:59:34.865Z,90.70
2019-05-23T03:02:20.510Z,90.70
2019-05-23T03:04:51.998Z,90.70
2019-05-23T03:07:27.068Z,90.70
2019-05-23T03:09:59.052Z,90.70
2019-05-23T03:12:31.226Z,90.70
2019-05-23T03:15:03.339Z,90.60
2019-05-23T03:17:38.613Z,90.70
2019-05-23T03:20:10.630Z,90.60
2019-05-23T03:22:48.317Z,90.70
2019-05-23T03:25:39.048Z,90.70
2019-05-23T03:28:11.899Z,90.60
2019-05-23T03:31:25.133Z,90.60
2019-05-23T03:33:30.763Z,90.60
2019-05-23T03:36:04.054Z,90.60
2019-05-23T03:38:36.148Z,90.60
2019-05-23T03:41:07.842Z,90.60
2019-05-23T03:43:41.052Z,90.60
2019-05-23T03:46:16.760Z,90.60
2019-05-23T03:48:49.050Z,90.50
2019-05-23T03:51:21.072Z,90.50
2019-05-23T03:53:54.444Z,90.50
2019-05-23T03:56:29.295Z,90.50
2019-05-23T03:59:01.157Z,90.40
2019-05-23T04:01:46.695Z,90.40
2019-05-23T04:04:07.279Z,90.30
2019-05-23T04:06:38.951Z,90.30
2019-05-23T04:09:10.935Z,90.20
2019-05-23T04:11:42.399Z,90.20
2019-05-23T04:14:14.294Z,90.10
2019-05-23T04:16:46.967Z,90.10
2019-05-23T04:19:18.256Z,90.00
2019-05-23T04:21:49.450Z,90.00
2019-05-23T04:24:20.781Z,89.90
2019-05-23T04:26:52.024Z,89.80
2019-05-23T04:29:23.831Z,89.70
2019-05-23T04:32:07.388Z,89.70
2019-05-23T04:34:28.630Z,89.50
2019-05-23T04:37:00.167Z,89.40
2019-05-23T04:39:32.653Z,89.40
2019-05-23T04:42:05.005Z,89.90
2019-05-23T04:44:36.668Z,89.30
2019-05-23T04:47:10.074Z,89.10
2019-05-23T04:49:41.517Z,89.00
2019-05-23T04:52:13.704Z,88.80
2019-05-23T04:54:44.876Z,88.60
2019-05-23T04:57:17.542Z,88.50
2019-05-23T04:59:48.940Z,88.40
2019-05-23T05:02:26.172Z,88.00
2019-05-23T05:04:54.683Z,87.60
2019-05-23T05:07:26.237Z,87.30
2019-05-23T05:09:57.557Z,86.90
2019-05-23T05:12:30.223Z,86.60
2019-05-23T05:15:01.696Z,86.40
2019-05-23T05:17:33.486Z,86.20
2019-05-23T05:20:04.941Z,85.80
2019-05-23T05:22:36.505Z,85.50
2019-05-23T05:25:09.955Z,85.40
2019-05-23T05:27:41.383Z,85.40
2019-05-23T05:30:13.072Z,85.20
2019-05-23T05:32:45.883Z,84.70
2019-05-23T05:35:17.729Z,84.50
2019-05-23T05:37:48.953Z,84.20
2019-05-23T05:40:20.681Z,83.90
2019-05-23T05:42:52.156Z,83.60
2019-05-23T05:45:23.788Z,83.40
2019-05-23T05:47:55.463Z,83.10
2019-05-23T05:50:27.073Z,83.00
2019-05-23T05:52:59.008Z,82.90
2019-05-23T05:55:30.424Z,82.20
2019-05-23T05:58:02.285Z,80.20
2019-05-23T06:00:35.483Z,76.90
2019-05-23T06:03:07.635Z,74.10
2019-05-23T06:05:40.864Z,72.50
2019-05-23T06:08:13.897Z,69.80
2019-05-23T06:10:45.428Z,67.40
2019-05-23T06:13:17.104Z,65.30
2019-05-23T06:15:49.948Z,64.00
2019-05-23T06:18:21.448Z,62.60
2019-05-23T06:20:53.685Z,60.00
2019-05-23T06:23:25.070Z,58.10
2019-05-23T06:25:56.581Z,57.10
2019-05-23T06:28:29.211Z,55.80
2019-05-23T06:31:01.809Z,55.40
2019-05-23T06:33:33.690Z,52.90
2019-05-23T06:36:05.278Z,51.90
2019-05-23T06:38:37.213Z,50.20
2019-05-23T06:41:08.810Z,49.60
2019-05-23T06:43:40.289Z,48.50
2019-05-23T06:46:12.158Z,47.30
2019-05-23T06:48:45.745Z,46.70
2019-05-23T06:51:17.634Z,47.20
2019-05-23T06:53:49.007Z,47.90
2019-05-23T06:56:20.508Z,49.30
2019-05-23T06:58:52.000Z,50.40
2019-05-23T07:01:23.371Z,50.70
2019-05-23T07:03:54.995Z,51.60
2019-05-23T07:06:26.575Z,52.20
2019-05-23T07:08:57.940Z,53.80
2019-05-23T07:11:29.429Z,54.40
2019-05-23T07:14:00.880Z,54.60
2019-05-23T07:16:32.470Z,54.60
2019-05-23T07:19:04.002Z,54.40
2019-05-23T07:21:35.415Z,55.60
2019-05-23T07:24:06.923Z,55.30
2019-05-23T07:26:38.467Z,54.30
2019-05-23T07:29:10.578Z,54.90
2019-05-23T07:31:42.025Z,54.80
2019-05-23T07:34:14.139Z,54.30
2019-05-23T07:36:45.715Z,54.00
2019-05-23T07:39:18.169Z,54.20
2019-05-23T07:41:49.773Z,53.20
2019-05-23T07:44:21.165Z,52.60
2019-05-23T07:46:52.491Z,53.30
2019-05-23T07:49:23.947Z,54.60
2019-05-23T07:51:55.318Z,53.90
2019-05-23T07:54:28.499Z,53.30
2019-05-23T07:56:59.906Z,53.40
2019-05-23T07:59:31.818Z,53.50
2019-05-23T08:02:14.245Z,53.90
2019-05-23T08:04:45.713Z,54.10
2019-05-23T08:07:18.212Z,53.60
2019-05-23T08:09:49.512Z,53.40
2019-05-23T08:12:20.823Z,52.90
2019-05-23T08:14:52.091Z,53.40
2019-05-23T08:17:23.961Z,53.90
2019-05-23T08:19:55.355Z,54.60
2019-05-23T08:22:27.025Z,53.50
2019-05-23T08:24:58.317Z,53.10
2019-05-23T08:27:29.824Z,53.20
2019-05-23T08:30:03.071Z,54.40
2019-05-23T08:32:35.635Z,54.10
2019-05-23T08:35:07.530Z,52.90
2019-05-23T08:37:39.313Z,51.50
2019-05-23T08:40:10.601Z,50.80
2019-05-23T08:42:42.421Z,51.70
2019-05-23T08:45:14.676Z,51.60
2019-05-23T08:47:46.211Z,51.30
2019-05-23T08:50:17.859Z,51.90
2019-05-23T08:52:49.473Z,52.40
2019-05-23T08:55:22.812Z,53.30
2019-05-23T08:57:54.233Z,54.40
2019-05-23T09:00:27.517Z,53.90
2019-05-23T09:02:59.437Z,53.60
2019-05-23T09:05:36.008Z,53.60
2019-05-23T09:08:09.050Z,53.40
2019-05-23T09:10:40.504Z,54.00
2019-05-23T09:13:13.928Z,54.00
2019-05-23T09:15:45.183Z,53.60
2019-05-23T09:18:16.744Z,54.00
2019-05-23T09:20:47.917Z,54.60
2019-05-23T09:23:19.124Z,54.10
2019-05-23T09:25:50.811Z,53.30
2019-05-23T09:28:23.070Z,53.30
2019-05-23T09:30:54.372Z,53.30
2019-05-23T09:33:25.860Z,53.10
2019-05-23T09:35:57.134Z,53.20
2019-05-23T09:38:28.795Z,53.60
2019-05-23T09:41:00.514Z,53.30
2019-05-23T09:43:31.856Z,53.50
2019-05-23T09:46:03.295Z,52.70
2019-05-23T09:48:35.180Z,52.20
2019-05-23T09:51:06.535Z,52.70
2019-05-23T09:53:37.928Z,53.30
2019-05-23T09:56:09.259Z,52.80
2019-05-23T09:58:40.497Z,52.60
2019-05-23T10:01:12.617Z,53.10
2019-05-23T10:03:44.030Z,52.60
2019-05-23T10:06:15.549Z,52.40
2019-05-23T10:08:46.944Z,52.40
2019-05-23T10:11:18.378Z,52.00
2019-05-23T10:13:49.789Z,52.00
2019-05-23T10:16:21.505Z,52.00
2019-05-23T10:18:52.838Z,52.50
2019-05-23T10:21:24.346Z,52.90
2019-05-23T10:23:55.578Z,51.70
2019-05-23T10:26:26.966Z,50.70
2019-05-23T10:28:58.501Z,50.10
2019-05-23T10:31:30.128Z,50.00
2019-05-23T10:34:01.524Z,49.90
2019-05-23T10:36:32.977Z,49.20
2019-05-23T10:39:07.162Z,49.50
2019-05-23T10:41:38.611Z,50.10
2019-05-23T10:44:10.071Z,50.10
2019-05-23T10:46:41.446Z,50.20
2019-05-23T10:49:12.908Z,50.70
2019-05-23T10:51:44.420Z,51.60
2019-05-23T10:54:16.059Z,51.30
2019-05-23T10:56:47.560Z,50.60
2019-05-23T10:59:18.835Z,50.70
2019-05-23T11:01:50.208Z,49.90
2019-05-23T11:04:21.679Z,48.10
2019-05-23T11:06:53.180Z,46.80
2019-05-23T11:09:37.286Z,46.60
2019-05-23T11:11:58.458Z,47.10
2019-05-23T11:14:29.931Z,47.20
2019-05-23T11:17:01.879Z,47.70
2019-05-23T11:19:33.336Z,48.20
2019-05-23T11:22:06.156Z,49.00
2019-05-23T11:24:37.740Z,49.10
2019-05-23T11:27:09.177Z,49.00
2019-05-23T11:29:40.551Z,49.00
2019-05-23T11:32:12.519Z,49.70
2019-05-23T11:34:44.303Z,50.00
2019-05-23T11:37:15.828Z,50.50
2019-05-23T11:39:50.170Z,50.90
2019-05-23T11:42:20.399Z,50.50
2019-05-23T11:44:51.833Z,49.90
2019-05-23T11:47:24.439Z,49.60
2019-05-23T11:49:55.709Z,49.80
2019-05-23T11:52:28.749Z,49.60
2019-05-23T11:55:00.817Z,49.30
2019-05-23T11:57:32.174Z,49.40
2019-05-23T12:00:06.556Z,49.30
2019-05-23T12:02:45.098Z,49.40
2019-05-23T12:05:22.356Z,50.00
2019-05-23T12:07:53.824Z,50.70
2019-05-23T12:10:25.356Z,50.60
2019-05-23T12:12:56.677Z,50.40
2019-05-23T12:15:30.017Z,50.90
2019-05-23T12:18:01.311Z,50.60
2019-05-23T12:20:32.618Z,50.80
2019-05-23T12:23:10.467Z,50.70
2019-05-23T12:25:37.481Z,50.80
2019-05-23T12:28:10.562Z,51.20
2019-05-23T12:30:42.017Z,52.40
2019-05-23T12:33:13.594Z,54.50
2019-05-23T12:35:44.908Z,53.70
2019-05-23T12:38:16.290Z,53.40
2019-05-23T12:40:47.920Z,52.20
2019-05-23T12:43:19.400Z,51.70
2019-05-23T12:45:50.926Z,52.40
2019-05-23T12:48:30.029Z,53.90
2019-05-23T12:51:09.310Z,57.40
2019-05-23T12:53:40.705Z,57.80
2019-05-23T12:56:12.525Z,56.10
2019-05-23T12:58:44.512Z,54.70
2019-05-23T13:01:16.308Z,54.50
2019-05-23T13:03:47.963Z,55.00
2019-05-23T13:06:19.471Z,54.10
2019-05-23T13:08:50.928Z,53.20
2019-05-23T13:11:23.015Z,52.60
2019-05-23T13:13:54.845Z,52.20
2019-05-23T13:16:26.402Z,52.40
2019-05-23T13:18:57.672Z,51.90
2019-05-23T13:21:28.843Z,51.60
2019-05-23T13:24:00.296Z,50.80
2019-05-23T13:26:31.867Z,50.40
2019-05-23T13:29:03.262Z,49.90
2019-05-23T13:31:34.881Z,49.90
2019-05-23T13:34:06.461Z,50.40
2019-05-23T13:36:37.762Z,50.80
2019-05-23T13:39:09.997Z,50.90
2019-05-23T13:41:42.264Z,51.30
2019-05-23T13:44:32.094Z,52.10
2019-05-23T13:46:46.592Z,52.40
2019-05-23T13:49:18.101Z,52.90
2019-05-23T13:51:49.725Z,53.60
2019-05-23T13:54:21.771Z,54.70
2019-05-23T13:56:53.285Z,56.00
2019-05-23T13:59:24.487Z,57.20
2019-05-23T14:01:57.046Z,58.70
2019-05-23T14:04:28.503Z,60.40
2019-05-23T14:06:59.883Z,62.10
2019-05-23T14:09:32.439Z,64.10
2019-05-23T14:12:20.820Z,65.80
2019-05-23T14:14:38.156Z,67.40
2019-05-23T14:17:20.150Z,69.10
2019-05-23T14:19:51.816Z,70.80
2019-05-23T14:22:23.127Z,72.00
2019-05-23T14:24:54.431Z,73.00
2019-05-23T14:27:39.446Z,73.90
2019-05-23T14:30:14.808Z,74.50
2019-05-23T14:32:50.880Z,74.70
2019-05-23T14:35:27.245Z,75.20
2019-05-23T14:38:03.332Z,75.60
2019-05-23T14:40:34.956Z,76.10
2019-05-23T14:43:11.110Z,76.60
2019-05-23T14:45:44.203Z,77.00
2019-05-23T14:48:36.478Z,77.70
2019-05-23T14:51:09.970Z,78.30
2019-05-23T14:53:59.679Z,78.60
2019-05-23T14:56:32.432Z,79.00
2019-05-23T14:59:03.944Z,79.30
2019-05-23T15:01:35.734Z,80.20
2019-05-23T15:04:07.402Z,80.00
2019-05-23T15:06:38.606Z,80.00
2019-05-23T15:09:10.093Z,80.00
2019-05-23T15:11:41.573Z,80.10
2019-05-23T15:14:12.868Z,80.40
2019-05-23T15:16:44.820Z,80.50
2019-05-23T15:19:36.423Z,80.70
2019-05-23T15:21:49.401Z,80.70
2019-05-23T15:24:21.103Z,80.60
2019-05-23T15:26:52.388Z,80.60
2019-05-23T15:29:28.635Z,80.60
2019-05-23T15:32:02.287Z,80.50
2019-05-23T15:34:30.085Z,80.20
2019-05-23T15:37:01.563Z,80.30
2019-05-23T15:39:33.190Z,80.50
2019-05-23T15:42:04.805Z,80.60
2019-05-23T15:44:36.488Z,80.90
2019-05-23T15:47:07.789Z,81.10
2019-05-23T15:49:41.109Z,81.20
2019-05-23T15:52:14.213Z,81.30
2019-05-23T15:54:49.952Z,81.30
2019-05-23T15:57:38.295Z,81.40
2019-05-23T16:00:12.293Z,81.70
2019-05-23T16:02:45.487Z,81.70
2019-05-23T16:05:18.670Z,81.90
2019-05-23T16:07:49.968Z,82.10
2019-05-23T16:10:21.668Z,82.20
2019-05-23T16:12:53.285Z,82.20
2019-05-23T16:15:24.625Z,82.20
2019-05-23T16:17:56.641Z,82.20
2019-05-23T16:20:28.281Z,82.40
2019-05-23T16:22:59.632Z,82.50
2019-05-23T16:25:31.390Z,83.20
2019-05-23T16:28:02.860Z,82.60
2019-05-23T16:30:34.340Z,82.70
2019-05-23T16:33:05.633Z,82.70
2019-05-23T16:35:38.358Z,82.80
2019-05-23T16:38:09.694Z,83.40
2019-05-23T16:40:41.377Z,83.00
2019-05-23T16:43:13.951Z,83.10
2019-05-23T16:45:45.335Z,83.00
2019-05-23T16:48:16.795Z,83.00
2019-05-23T16:50:48.414Z,83.00
2019-05-23T16:53:20.199Z,83.10
2019-05-23T16:56:05.768Z,83.10
2019-05-23T16:58:38.905Z,83.00
2019-05-23T17:01:24.053Z,82.90
2019-05-23T17:03:57.810Z,82.80
2019-05-23T17:06:33.523Z,82.70
2019-05-23T17:09:25.349Z,82.70
2019-05-23T17:11:58.933Z,82.60
2019-05-23T17:14:32.072Z,82.50
2019-05-23T17:17:43.534Z,82.70
2019-05-23T17:20:00.230Z,82.70
2019-05-23T17:22:42.250Z,82.70
2019-05-23T17:25:15.424Z,82.60
2019-05-23T17:27:54.420Z,82.60
2019-05-23T17:30:27.610Z,82.60
2019-05-23T17:32:59.085Z,82.50
2019-05-23T17:35:30.437Z,82.50
2019-05-23T17:38:01.851Z,82.40
2019-05-23T17:40:33.135Z,82.30
2019-05-23T17:43:04.401Z,82.30
2019-05-23T17:45:36.232Z,82.30
2019-05-23T17:48:07.810Z,82.20
2019-05-23T17:50:39.584Z,82.20
2019-05-23T17:53:10.859Z,82.10
2019-05-23T17:55:42.868Z,82.30
2019-05-23T17:58:16.059Z,82.10
2019-05-23T18:00:48.522Z,82.20
2019-05-23T18:03:19.896Z,82.20
2019-05-23T18:05:51.572Z,82.20
2019-05-23T18:08:22.920Z,82.30
2019-05-23T18:10:54.468Z,82.40
2019-05-23T18:13:26.499Z,82.50
2019-05-23T18:15:58.092Z,82.60
2019-05-23T18:18:29.972Z,82.70
2019-05-23T18:21:03.248Z,82.70
2019-05-23T18:23:34.712Z,82.80
2019-05-23T18:26:06.520Z,82.80
2019-05-23T18:28:38.158Z,82.80
2019-05-23T18:31:21.471Z,83.00
2019-05-23T18:33:53.928Z,83.10
2019-05-23T18:36:25.836Z,83.10
2019-05-23T18:38:57.111Z,83.30
2019-05-23T18:41:29.690Z,83.20
2019-05-23T18:44:01.876Z,83.20
2019-05-23T18:46:37.784Z,83.30
2019-05-23T18:49:12.163Z,83.40
2019-05-23T18:51:43.346Z,83.40
2019-05-23T18:54:14.838Z,83.30
2019-05-23T18:56:46.306Z,83.30
2019-05-23T18:59:18.320Z,83.30
2019-05-23T19:01:50.003Z,83.30
2019-05-23T19:04:21.532Z,83.40
2019-05-23T19:06:53.220Z,83.40
2019-05-23T19:09:25.750Z,83.50
2019-05-23T19:11:57.319Z,83.50
2019-05-23T19:14:28.663Z,83.50
2019-05-23T19:17:00.497Z,83.50
2019-05-23T19:19:32.606Z,83.70
2019-05-23T19:22:05.157Z,83.70
2019-05-23T19:24:36.772Z,83.70
2019-05-23T19:27:09.246Z,83.70
2019-05-23T19:29:40.613Z,83.80
2019-05-23T19:32:14.130Z,83.80
2019-05-23T19:34:45.993Z,83.80
2019-05-23T19:37:17.649Z,83.80
2019-05-23T19:39:49.070Z,83.80
2019-05-23T19:42:21.557Z,83.80
2019-05-23T19:44:52.873Z,83.90
2019-05-23T19:47:24.284Z,83.90
2019-05-23T19:49:55.720Z,83.80
2019-05-23T19:52:28.040Z,83.80
2019-05-23T19:54:59.385Z,83.90
2019-05-23T19:57:31.630Z,83.90
2019-05-23T20:00:08.957Z,83.80
2019-05-23T20:02:57.019Z,83.90
2019-05-23T20:05:39.682Z,83.90
2019-05-23T20:08:11.011Z,84.00
2019-05-23T20:10:43.124Z,84.10
2019-05-23T20:13:18.099Z,84.10
2019-05-23T20:15:48.042Z,84.20
2019-05-23T20:18:19.564Z,84.20
2019-05-23T20:20:51.437Z,84.10
2019-05-23T20:23:23.059Z,84.10
2019-05-23T20:25:54.630Z,84.10
2019-05-23T20:28:27.003Z,84.10
2019-05-23T20:30:59.298Z,84.10
2019-05-23T20:33:30.785Z,84.00
2019-05-23T20:36:03.925Z,84.00
2019-05-23T20:38:35.284Z,83.90
2019-05-23T20:41:06.605Z,83.90
2019-05-23T20:43:38.001Z,83.80
2019-05-23T20:46:09.386Z,83.80
2019-05-23T20:48:40.721Z,83.80
2019-05-23T20:51:11.991Z,83.80
2019-05-23T20:53:44.242Z,83.80
2019-05-23T20:56:15.548Z,83.70
2019-05-23T20:58:47.183Z,84.20
2019-05-23T21:01:20.561Z,83.80
2019-05-23T21:03:52.655Z,83.80
2019-05-23T21:06:23.937Z,83.80
2019-05-23T21:08:55.242Z,83.80
2019-05-23T21:11:26.636Z,83.80
2019-05-23T21:13:57.911Z,83.70
2019-05-23T21:16:29.225Z,83.90
2019-05-23T21:19:00.535Z,83.90
2019-05-23T21:21:31.734Z,83.80
2019-05-23T21:24:03.115Z,83.70
2019-05-23T21:26:34.755Z,83.80
2019-05-23T21:29:06.074Z,83.90
2019-05-23T21:31:37.500Z,83.80
2019-05-23T21:34:08.811Z,83.90
2019-05-23T21:36:40.647Z,83.90
2019-05-23T21:39:13.108Z,84.00
2019-05-23T21:41:44.409Z,84.00
2019-05-23T21:44:15.688Z,84.10
2019-05-23T21:46:46.981Z,84.20
2019-05-23T21:49:18.327Z,84.10
2019-05-23T21:51:51.787Z,84.30
2019-05-23T21:54:22.954Z,84.90
2019-05-23T21:56:54.378Z,84.40
2019-05-23T21:59:25.561Z,84.50
2019-05-23T22:01:59.357Z,84.60
2019-05-23T22:04:32.448Z,84.70
2019-05-23T22:07:03.806Z,84.70
2019-05-23T22:09:35.074Z,84.80
2019-05-23T22:12:08.335Z,84.80
2019-05-23T22:14:40.136Z,84.90
2019-05-23T22:17:11.314Z,85.00
2019-05-23T22:19:43.029Z,85.10
2019-05-23T22:22:14.447Z,85.10
2019-05-23T22:24:45.812Z,85.00
2019-05-23T22:27:17.058Z,85.00
2019-05-23T22:29:48.224Z,85.00
2019-05-23T22:32:21.329Z,85.10
2019-05-23T22:34:57.263Z,85.10
2019-05-23T22:37:28.712Z,85.30
2019-05-23T22:40:00.150Z,85.30
2019-05-23T22:42:33.236Z,85.40
2019-05-23T22:45:08.962Z,85.40
2019-05-23T22:47:40.350Z,85.40
2019-05-23T22:50:13.972Z,85.40
2019-05-23T22:52:45.570Z,85.30
2019-05-23T22:55:16.772Z,85.30
2019-05-23T22:57:48.078Z,85.20
2019-05-23T23:00:23.934Z,85.30
2019-05-23T23:02:55.129Z,85.20
2019-05-23T23:05:26.710Z,85.30
2019-05-23T23:07:58.599Z,86.00
2019-05-23T23:10:29.866Z,85.30
2019-05-23T23:13:01.145Z,85.30
2019-05-23T23:15:33.179Z,85.30
2019-05-23T23:18:04.477Z,85.50
2019-05-23T23:20:36.024Z,85.50
2019-05-23T23:23:07.297Z,85.40
2019-05-23T23:25:38.569Z,85.20
2019-05-23T23:28:11.009Z,85.20
2019-05-23T23:30:44.199Z,85.20
2019-05-23T23:33:15.464Z,85.00
2019-05-23T23:35:46.764Z,85.00
2019-05-23T23:38:18.034Z,84.90
2019-05-23T23:40:49.803Z,85.10
2019-05-23T23:43:21.101Z,84.90
2019-05-23T23:46:10.944Z,84.90
2019-05-23T23:49:00.526Z,85.00
2019-05-23T23:51:50.544Z,84.90
2019-05-23T23:54:40.544Z,85.00
2019-05-23T23:57:30.568Z,85.10
